CYHU - Montréal / Saint Hubert Airport

Pirep is a free, collaborative database of all public and private airports located within the United States. All pilots are welcome to contribute, edit, and improve any airport they have local knowledge about, no registration required.
Are you familiar with this airport? Help out other pilots by adding your local knowledge.
Uploaded photos will be licensed under a CC BY-SA 4.0 license. Please only upload photos you have the rights to use.
Tags
Public
Undocu­mented
METAR / TAF
Edit Tags
Food
Camping
Lodging
Car Rental
Bicycles
Swimming
Golfing
Fishing
Hot Springs
Museum
Flying Clubs
Airpark
Upcoming Events
No upcoming events. Is anything happening here soon?
*
*
*

Where exactly on/near the airport is this event taking place?

Is there a webpage with more information for this event?

Who should be contacted for more information?

What is this event all about?

Repeat every
Description
Transient Parking
Fuel Location
Landing & Tie-down Fees
Crew Car Availability
Flying Clubs
WiFi Access
Airport Statistics
Location: Montréal, Quebec
Elevation: 90ft
Runway 06L/24R: 7,840ft
Runway 06R/24L: 3,920ft
Runway 10/28: 2,800ft
Warning: This airport was imported from a non-authoritative source. It's public/private status may not be accurate.
Access: Open to the public
Current Weather — VFR
  • Weather data is strictly informational and not for flight planning purposes.
  • METAR
    2024-04-22 02:00:00 EDT
    Ceiling Wind Temperature Dewpoint Weather Visbility
    Sky clear 300° @ 13kt, gusts 20kt 33°F 17°F N/A 9SM
    Raw: CYHU 220600Z AUTO 30013G20KT 9SM CLR 01/M08 A2994 RMK SLP140
  • TAF
    2024-04-22 02:00:00 EDT – 2024-04-22 04:00:00 EDT
    Ceiling Wind Weather Visbility
    Sky clear 300° @ 12kt, gusts 22kt N/A 6SM
    Clouds: Few @ 8,000ft
    Raw: TAF CYHU 220540Z 2206/2306 30012G22KT P6SM FEW080 FM220800 30010G20KT P6SM SKC BECMG 2210/2212 29008KT BECMG 2213/2215 26012KT FM222200 24010G20KT P6SM SCT060 BECMG 2301/2303 19008KT RMK FCST BASED ON AUTO OBS. NXT FCST BY 221200Z
  • TAF
    2024-04-22 04:00:00 EDT – 2024-04-22 06:00:00 EDT
    Ceiling Wind Weather Visbility
    Sky clear 300° @ 10kt, gusts 20kt N/A 6SM
    Clouds: @ ft
    Raw: TAF CYHU 220540Z 2206/2306 30012G22KT P6SM FEW080 FM220800 30010G20KT P6SM SKC BECMG 2210/2212 29008KT BECMG 2213/2215 26012KT FM222200 24010G20KT P6SM SCT060 BECMG 2301/2303 19008KT RMK FCST BASED ON AUTO OBS. NXT FCST BY 221200Z
  • TAF
    2024-04-22 06:00:00 EDT – 2024-04-22 09:00:00 EDT
    Ceiling Wind Weather Visbility
    Sky clear 290° @ 8kt N/A 6SM
    Clouds: @ ft
    Raw: TAF CYHU 220540Z 2206/2306 30012G22KT P6SM FEW080 FM220800 30010G20KT P6SM SKC BECMG 2210/2212 29008KT BECMG 2213/2215 26012KT FM222200 24010G20KT P6SM SCT060 BECMG 2301/2303 19008KT RMK FCST BASED ON AUTO OBS. NXT FCST BY 221200Z
  • TAF
    2024-04-22 09:00:00 EDT – 2024-04-22 18:00:00 EDT
    Ceiling Wind Weather Visbility
    Sky clear 260° @ 12kt N/A 6SM
    Clouds: @ ft
    Raw: TAF CYHU 220540Z 2206/2306 30012G22KT P6SM FEW080 FM220800 30010G20KT P6SM SKC BECMG 2210/2212 29008KT BECMG 2213/2215 26012KT FM222200 24010G20KT P6SM SCT060 BECMG 2301/2303 19008KT RMK FCST BASED ON AUTO OBS. NXT FCST BY 221200Z
  • TAF
    2024-04-22 18:00:00 EDT – 2024-04-22 21:00:00 EDT
    Ceiling Wind Weather Visbility
    Sky clear 240° @ 10kt, gusts 20kt N/A 6SM
    Clouds: Scattered @ 6,000ft
    Raw: TAF CYHU 220540Z 2206/2306 30012G22KT P6SM FEW080 FM220800 30010G20KT P6SM SKC BECMG 2210/2212 29008KT BECMG 2213/2215 26012KT FM222200 24010G20KT P6SM SCT060 BECMG 2301/2303 19008KT RMK FCST BASED ON AUTO OBS. NXT FCST BY 221200Z
  • TAF
    2024-04-22 21:00:00 EDT – 2024-04-23 02:00:00 EDT
    Ceiling Wind Weather Visbility
    Sky clear 190° @ 8kt N/A 6SM
    Clouds: Scattered @ 6,000ft
    Raw: TAF CYHU 220540Z 2206/2306 30012G22KT P6SM FEW080 FM220800 30010G20KT P6SM SKC BECMG 2210/2212 29008KT BECMG 2213/2215 26012KT FM222200 24010G20KT P6SM SCT060 BECMG 2301/2303 19008KT RMK FCST BASED ON AUTO OBS. NXT FCST BY 221200Z
Click/tap to add an annotation marker to the map
Airport Webcams
No webcams added yet.
Direct links to live image URLs will be displayed inline on this page. URLs to separate webpages will be linked to.
URL:
Direct links to live image URLs will be displayed inline on this page. URLs to separate webpages will be linked to.
URL:
Comments
Leave a comment What was your experience like at this airport?